Impacts METAR Board
IDs:

KSLC - Salt Lake City Intl, UT, US

Updated at: 1100 UTC 09 Jul 2020
Potential Impact None Slight Moderate High
Time 08/23Z 09/00Z 09/01Z 09/02Z 09/03Z 09/04Z 09/05Z 09/06Z 09/07Z 09/08Z 09/09Z 09/10Z 09/11Z
Temp88 87 87 85 80 80 77 72 71 70 69 66 65
Dewpt37 37 37 37 42 45 44 42 41 39 49 49 47
Altim29.94 29.93 29.92 29.91 29.90 29.91 29.92 29.92 29.91 29.92 29.93 29.93 29.93
VIS10 10 10 10 10 10 10 10 10 10 10 10 10
CIG-- -- -- -- -- -- -- -- -- -- -- -- --
CoverFEWFEWCLRCLRCLRCLRCLRCLRCLRCLRCLRCLRCLR
FltCatVFRVFRVFRVFRVFRVFRVFRVFRVFRVFRVFRVFRVFR
WX--------------------------
WDir3303503603503503101901802100300250230
WSpd12 11 9 9 8 5 3 5 4 0 3 3 3
WGst-- -- -- -- -- -- -- -- -- -- -- -- --
Raw hourly METARs
KSLC 082254Z COR 33012KT 10SM FEW100 FEW140 31/03 A2994 RMK AO2 SLP083 FU FEW140 FU DSNT NW T03110028
KSLC 082354Z 35011KT 10SM FEW100 FEW140 31/03 A2993 RMK AO2 SLP082 FU FEW140 FU DSNT NW T03060028 56014
KSLC 090054Z 36009KT 10SM CLR 31/03 A2992 RMK AO2 SLP075 T03060028
KSLC 090154Z 35009KT 10SM CLR 29/03 A2991 RMK AO2 SLP072 T02940028
KSLC 090254Z 35008KT 10SM CLR 27/06 A2990 RMK AO2 SLP070 T02670056 56008
KSLC 090354Z 31005KT 10SM CLR 27/07 A2991 RMK AO2 SLP072 T02670072
KSLC 090454Z 19003KT 10SM CLR 25/07 A2992 RMK AO2 SLP076 T02500067
KSLC 090554Z 18005KT 10SM CLR 22/06 A2992 RMK AO2 SLP074 T02220056 10311 20217 50003
KSLC 090654Z 21004KT 10SM CLR 22/05 A2991 RMK AO2 SLP071 T02170050 403110133
KSLC 090754Z 00000KT 10SM CLR 21/04 A2992 RMK AO2 SLP076 T02110039
KSLC 090854Z 30003KT 10SM CLR 21/09 A2993 RMK AO2 SLP076 T02060094 53004
KSLC 090954Z 25003KT 10SM CLR 19/09 A2993 RMK AO2 SLP079 T01890094
KSLC 091054Z 23003KT 10SM CLR 18/08 A2993 RMK AO2 SLP079 T01830083



Page loaded:  11:33 UTC  |   04:33 AM Pacific  |   05:33 AM Mountain  |   06:33 AM Central  |   07:33 AM Eastern

 

ADVISORIES

FORECASTS

FORECASTS

OBSERVATIONS

USER TOOLS

ABOUT US